createdAt,value
2017-10-26T00:02:25.741Z,17.03
2017-10-26T00:04:53.337Z,17.20
2017-10-26T00:07:21.981Z,15.80
2017-10-26T00:09:49.568Z,16.93
2017-10-26T00:12:18.644Z,16.40
2017-10-26T00:14:46.237Z,19.50
2017-10-26T00:17:14.673Z,19.37
2017-10-26T00:19:42.268Z,17.13
2017-10-26T00:22:09.839Z,17.67
2017-10-26T00:24:38.204Z,17.90
2017-10-26T00:27:05.767Z,17.12
2017-10-26T00:29:33.425Z,18.37
2017-10-26T00:32:01.021Z,19.08
2017-10-26T00:34:28.600Z,20.50
2017-10-26T00:36:58.132Z,20.20
2017-10-26T00:39:25.704Z,20.57
2017-10-26T00:41:54.064Z,19.70
2017-10-26T00:44:21.632Z,21.87
2017-10-26T00:46:49.216Z,22.60
2017-10-26T00:49:17.552Z,22.30
2017-10-26T00:51:45.148Z,20.57
2017-10-26T00:54:12.724Z,20.08
2017-10-26T00:56:41.080Z,21.57
2017-10-26T00:59:08.756Z,19.60
2017-10-26T01:01:36.347Z,21.50
2017-10-26T01:04:03.920Z,20.70
2017-10-26T01:06:31.525Z,21.37
2017-10-26T01:09:00.617Z,21.43
2017-10-26T01:11:28.200Z,22.40
2017-10-26T01:13:57.761Z,21.63
2017-10-26T01:16:25.629Z,22.63
2017-10-26T01:18:53.702Z,22.47
2017-10-26T01:21:22.829Z,22.97
2017-10-26T01:23:50.436Z,22.10
2017-10-26T01:26:18.017Z,20.23
2017-10-26T01:28:45.636Z,21.27
2017-10-26T01:31:14.228Z,20.60
2017-10-26T01:33:42.598Z,20.13
2017-10-26T01:36:10.951Z,21.70
2017-10-26T01:38:38.544Z,22.97
2017-10-26T01:41:06.887Z,23.13
2017-10-26T01:43:34.500Z,21.80
2017-10-26T01:46:02.089Z,23.65
2017-10-26T01:48:29.666Z,22.50
2017-10-26T01:50:58.475Z,22.93
2017-10-26T01:53:26.825Z,23.30
2017-10-26T01:55:54.424Z,25.00
2017-10-26T01:58:22.010Z,21.93
2017-10-26T02:00:49.609Z,23.43
2017-10-26T02:03:17.184Z,23.30
2017-10-26T02:05:44.780Z,25.27
2017-10-26T02:08:13.117Z,23.73
2017-10-26T02:10:40.680Z,25.93
2017-10-26T02:13:08.292Z,25.20
2017-10-26T02:15:36.629Z,23.60
2017-10-26T02:18:04.209Z,24.75
2017-10-26T02:20:32.623Z,25.30
2017-10-26T02:23:00.233Z,25.67
2017-10-26T02:25:27.804Z,24.47
2017-10-26T02:27:55.413Z,24.37
2017-10-26T02:30:34.805Z,23.80
2017-10-26T02:33:02.473Z,22.67
2017-10-26T02:35:30.817Z,24.60
2017-10-26T02:38:01.044Z,23.35
2017-10-26T02:40:28.613Z,23.43
2017-10-26T02:42:57.891Z,23.40
2017-10-26T02:45:25.455Z,24.00
2017-10-26T02:47:53.052Z,24.40
2017-10-26T02:50:20.628Z,24.55
2017-10-26T02:52:49.093Z,24.17
2017-10-26T02:57:50.673Z,22.40
2017-10-26T03:00:18.245Z,23.37
2017-10-26T03:02:46.724Z,26.02
2017-10-26T03:05:15.070Z,29.15
2017-10-26T03:07:42.641Z,23.17
2017-10-26T03:10:10.309Z,22.77
2017-10-26T03:12:37.884Z,21.80
2017-10-26T03:15:06.246Z,21.97
2017-10-26T03:17:33.816Z,22.70
2017-10-26T03:20:02.180Z,22.08
2017-10-26T03:22:29.749Z,23.53
2017-10-26T03:24:58.744Z,22.73
2017-10-26T03:27:26.312Z,23.80
2017-10-26T03:29:53.900Z,21.77
2017-10-26T03:32:21.473Z,22.47
2017-10-26T03:34:49.084Z,21.30
2017-10-26T03:37:16.664Z,29.05
2017-10-26T03:39:45.000Z,41.90
2017-10-26T03:42:12.698Z,34.35
2017-10-26T03:44:41.036Z,37.50
2017-10-26T03:47:08.623Z,21.17
2017-10-26T03:49:36.192Z,24.90
2017-10-26T03:52:03.848Z,23.27
2017-10-26T03:54:31.416Z,24.40
2017-10-26T03:57:00.616Z,24.02
2017-10-26T03:59:28.181Z,23.60
2017-10-26T04:01:57.476Z,22.97
2017-10-26T04:04:25.048Z,25.30
2017-10-26T04:06:53.474Z,24.20
2017-10-26T04:09:21.073Z,23.40
2017-10-26T04:11:48.637Z,24.20
2017-10-26T04:14:16.624Z,26.48
2017-10-26T04:16:44.992Z,24.30
2017-10-26T04:19:13.356Z,22.35
2017-10-26T04:21:42.433Z,23.47
2017-10-26T04:24:10.025Z,22.90
2017-10-26T04:26:37.591Z,24.50
2017-10-26T04:29:05.451Z,24.27
2017-10-26T04:31:33.016Z,23.27
2017-10-26T04:34:00.596Z,22.80
2017-10-26T04:36:28.956Z,24.10
2017-10-26T04:38:57.914Z,23.52
2017-10-26T04:41:25.608Z,22.30
2017-10-26T04:43:54.675Z,24.50
2017-10-26T04:46:22.268Z,23.73
2017-10-26T04:48:49.924Z,24.17
2017-10-26T04:51:17.512Z,24.50
2017-10-26T04:53:45.844Z,24.70
2017-10-26T04:56:13.440Z,23.70
2017-10-26T04:58:41.785Z,23.73
2017-10-26T05:01:09.653Z,24.57
2017-10-26T05:03:37.232Z,25.40
2017-10-26T05:06:04.828Z,25.30
2017-10-26T05:08:32.400Z,21.20
2017-10-26T05:11:00.153Z,23.40
2017-10-26T05:13:27.723Z,22.57
2017-10-26T05:15:55.297Z,23.17
2017-10-26T05:18:22.892Z,22.50
2017-10-26T05:20:51.968Z,30.70
2017-10-26T05:23:19.547Z,33.30
2017-10-26T05:25:47.136Z,26.87
2017-10-26T05:28:15.464Z,20.87
2017-10-26T05:30:43.060Z,24.80
2017-10-26T05:33:10.624Z,22.37
2017-10-26T05:35:38.212Z,24.23
2017-10-26T05:38:05.781Z,24.23
2017-10-26T05:40:33.373Z,22.57
2017-10-26T05:43:00.948Z,24.33
2017-10-26T05:45:28.543Z,25.57
2017-10-26T05:47:57.822Z,23.30
2017-10-26T05:50:26.299Z,22.80
2017-10-26T05:52:53.865Z,22.97
2017-10-26T05:55:21.440Z,21.83
2017-10-26T05:57:49.792Z,23.70
2017-10-26T06:00:17.369Z,23.90
2017-10-26T06:02:45.740Z,23.77
2017-10-26T06:05:13.321Z,24.52
2017-10-26T06:07:41.696Z,26.47
2017-10-26T06:10:10.060Z,24.40
2017-10-26T06:12:37.830Z,24.20
2017-10-26T06:15:05.400Z,22.13
2017-10-26T06:17:33.736Z,21.30
2017-10-26T06:20:01.321Z,22.50
2017-10-26T06:22:28.891Z,22.60
2017-10-26T06:24:58.805Z,23.20
2017-10-26T06:27:26.376Z,22.03
2017-10-26T06:29:54.732Z,22.53
2017-10-26T06:32:22.296Z,22.00
2017-10-26T06:34:49.887Z,23.23
2017-10-26T06:37:18.216Z,21.58
2017-10-26T06:39:45.805Z,23.90
2017-10-26T06:42:13.380Z,24.12
2017-10-26T06:44:41.741Z,23.70
2017-10-26T06:47:09.301Z,21.53
2017-10-26T06:49:38.397Z,23.10
2017-10-26T06:52:05.976Z,20.73
2017-10-26T06:54:34.365Z,23.60
2017-10-26T06:57:02.701Z,20.80
2017-10-26T06:59:30.277Z,21.87
2017-10-26T07:01:59.680Z,22.65
2017-10-26T07:04:27.244Z,24.27
2017-10-26T07:06:55.932Z,22.70
2017-10-26T07:09:23.504Z,24.10
2017-10-26T07:11:51.845Z,21.73
2017-10-26T07:14:19.444Z,21.77
2017-10-26T07:16:47.780Z,21.67
2017-10-26T07:19:15.373Z,22.07
2017-10-26T07:21:42.952Z,21.65
2017-10-26T07:24:11.324Z,23.20
2017-10-26T07:26:39.659Z,22.47
2017-10-26T07:29:07.256Z,21.50
2017-10-26T07:31:35.601Z,21.60
2017-10-26T07:34:03.233Z,24.12
2017-10-26T07:36:30.862Z,20.02
2017-10-26T07:39:00.177Z,21.00
2017-10-26T07:41:28.797Z,21.20
2017-10-26T07:43:58.827Z,20.83
2017-10-26T07:46:26.438Z,21.17
2017-10-26T07:48:54.964Z,18.83
2017-10-26T07:51:22.628Z,20.93
2017-10-26T07:53:50.269Z,19.30
2017-10-26T07:56:17.900Z,17.67
2017-10-26T07:58:45.472Z,19.20
2017-10-26T08:01:13.861Z,19.00
2017-10-26T08:03:41.459Z,18.73
2017-10-26T08:06:09.184Z,17.05
2017-10-26T08:08:37.609Z,17.33
2017-10-26T08:11:05.250Z,15.83
2017-10-26T08:13:32.828Z,17.73
2017-10-26T08:16:00.455Z,15.17
2017-10-26T08:18:28.042Z,16.80
2017-10-26T08:20:55.677Z,16.97
2017-10-26T08:23:23.252Z,16.80
2017-10-26T08:25:51.024Z,16.10
2017-10-26T08:28:18.611Z,15.00
2017-10-26T08:30:46.555Z,17.50
2017-10-26T08:33:14.128Z,15.90
2017-10-26T08:35:41.696Z,14.60
2017-10-26T08:38:09.754Z,16.00
2017-10-26T08:40:37.316Z,15.40
2017-10-26T08:43:04.921Z,14.77
2017-10-26T08:45:32.488Z,16.90
2017-10-26T08:48:00.885Z,15.37
2017-10-26T08:50:28.461Z,16.00
2017-10-26T08:52:57.163Z,14.13
2017-10-26T08:55:24.833Z,16.27
2017-10-26T08:57:52.543Z,15.63
2017-10-26T09:00:20.916Z,14.30
2017-10-26T09:02:48.518Z,13.93
2017-10-26T09:05:16.136Z,15.38
2017-10-26T09:07:43.732Z,15.00
2017-10-26T09:10:11.376Z,13.93
2017-10-26T09:12:39.869Z,13.77
2017-10-26T09:15:07.446Z,17.60
2017-10-26T09:17:35.020Z,17.00
2017-10-26T09:20:02.674Z,15.20
2017-10-26T09:22:30.240Z,17.83
2017-10-26T09:24:59.898Z,19.83
2017-10-26T09:27:28.229Z,18.73
2017-10-26T09:29:55.834Z,13.57
2017-10-26T09:32:23.557Z,17.43
2017-10-26T09:34:51.129Z,16.63
2017-10-26T09:37:18.928Z,15.63
2017-10-26T09:39:46.496Z,16.37
2017-10-26T09:42:14.832Z,15.40
2017-10-26T09:44:42.428Z,15.70
2017-10-26T09:47:10.454Z,16.30
2017-10-26T09:49:38.081Z,15.43
2017-10-26T09:52:05.786Z,18.42
2017-10-26T09:54:33.483Z,15.07
2017-10-26T09:57:01.063Z,14.50
2017-10-26T09:59:29.628Z,11.23
2017-10-26T10:01:58.707Z,14.07
2017-10-26T10:04:26.280Z,14.20
2017-10-26T10:06:53.881Z,15.33
2017-10-26T10:09:21.505Z,17.03
2017-10-26T10:11:50.604Z,13.33
2017-10-26T10:14:18.197Z,15.23
2017-10-26T10:16:45.777Z,13.17
2017-10-26T10:19:13.596Z,15.03
2017-10-26T10:21:41.164Z,13.73
2017-10-26T10:24:09.506Z,14.23
2017-10-26T10:26:37.997Z,14.97
2017-10-26T10:29:05.564Z,14.40
2017-10-26T10:31:33.157Z,15.57
2017-10-26T10:34:01.882Z,13.10
2017-10-26T10:36:29.569Z,10.47
2017-10-26T10:38:58.665Z,14.63
2017-10-26T10:41:27.795Z,12.87
2017-10-26T10:43:57.080Z,12.87
2017-10-26T10:46:24.765Z,13.60
2017-10-26T10:48:53.140Z,13.47
2017-10-26T10:51:21.511Z,14.30
2017-10-26T10:53:50.170Z,13.27
2017-10-26T10:56:17.780Z,14.90
2017-10-26T10:58:49.118Z,13.03
2017-10-26T11:01:17.556Z,14.05
2017-10-26T11:03:45.198Z,14.47
2017-10-26T11:06:12.772Z,14.73
2017-10-26T11:08:40.360Z,12.07
2017-10-26T11:11:08.036Z,12.57
2017-10-26T11:13:36.396Z,11.83
2017-10-26T11:16:04.130Z,12.80
2017-10-26T11:18:31.705Z,13.75
2017-10-26T11:21:00.624Z,11.68
2017-10-26T11:23:28.196Z,12.03
2017-10-26T11:25:57.478Z,12.07
2017-10-26T11:28:25.057Z,9.83
2017-10-26T11:30:53.421Z,9.13
2017-10-26T11:33:21.798Z,10.80
2017-10-26T11:35:49.567Z,8.00
2017-10-26T11:38:17.902Z,8.67
2017-10-26T11:40:45.460Z,4.57
2017-10-26T11:43:13.052Z,6.00
2017-10-26T11:45:40.617Z,5.70
2017-10-26T11:48:08.209Z,6.87
2017-10-26T11:50:36.543Z,7.12
2017-10-26T11:53:04.189Z,7.02
2017-10-26T11:55:31.798Z,6.53
2017-10-26T11:58:00.804Z,6.45
2017-10-26T12:00:29.191Z,6.20
2017-10-26T12:02:58.876Z,6.95
2017-10-26T12:05:26.531Z,6.30
2017-10-26T12:07:54.116Z,6.10
2017-10-26T12:10:22.468Z,4.30
2017-10-26T12:12:50.202Z,5.10
2017-10-26T12:15:17.790Z,3.80
2017-10-26T12:17:45.460Z,4.03
2017-10-26T12:20:13.309Z,4.43
2017-10-26T12:22:40.892Z,4.17
2017-10-26T12:25:09.372Z,3.97
2017-10-26T12:27:36.937Z,3.77
2017-10-26T12:30:04.509Z,4.50
2017-10-26T12:32:32.865Z,4.43
2017-10-26T12:35:00.436Z,3.70
2017-10-26T12:37:28.024Z,4.90
2017-10-26T12:39:57.292Z,4.10
2017-10-26T12:42:25.652Z,4.87
2017-10-26T12:44:53.221Z,4.97
2017-10-26T12:47:20.914Z,5.07
2017-10-26T12:49:49.280Z,4.53
2017-10-26T12:52:16.875Z,4.80
2017-10-26T12:54:44.455Z,5.30
2017-10-26T12:57:12.049Z,5.35
2017-10-26T12:59:39.640Z,5.70
2017-10-26T13:02:09.480Z,4.60
2017-10-26T13:04:37.084Z,5.53
2017-10-26T13:07:04.652Z,5.43
2017-10-26T13:09:32.260Z,5.40
2017-10-26T13:11:59.889Z,5.43
2017-10-26T13:14:27.499Z,4.73
2017-10-26T13:16:55.069Z,5.57
2017-10-26T13:19:22.660Z,5.50
2017-10-26T13:21:50.220Z,5.77
2017-10-26T13:24:17.803Z,5.53
2017-10-26T13:26:46.136Z,4.73
2017-10-26T13:29:13.727Z,5.87
2017-10-26T13:31:41.384Z,5.80
2017-10-26T13:34:09.016Z,5.60
2017-10-26T13:36:36.585Z,5.43
2017-10-26T13:39:04.183Z,5.60
2017-10-26T13:41:32.552Z,6.47
2017-10-26T13:44:00.150Z,5.60
2017-10-26T13:46:27.711Z,5.40
2017-10-26T13:48:55.300Z,3.87
2017-10-26T13:51:22.874Z,6.00
2017-10-26T13:53:50.468Z,6.20
2017-10-26T13:56:18.824Z,4.90
2017-10-26T13:58:46.597Z,5.73
2017-10-26T14:01:14.961Z,4.97
2017-10-26T14:03:42.532Z,5.20
2017-10-26T14:06:10.348Z,4.20
2017-10-26T14:08:37.908Z,4.37
2017-10-26T14:11:06.515Z,4.25
2017-10-26T14:13:34.107Z,4.30
2017-10-26T14:16:02.444Z,4.47
2017-10-26T14:18:30.032Z,4.40
2017-10-26T14:20:58.800Z,4.30
2017-10-26T14:23:26.397Z,4.60
2017-10-26T14:25:53.964Z,4.37
2017-10-26T14:28:23.056Z,4.53
2017-10-26T14:30:51.389Z,4.90
2017-10-26T14:33:18.984Z,4.50
2017-10-26T14:35:46.560Z,4.73
2017-10-26T14:38:14.152Z,5.32
2017-10-26T14:40:42.481Z,5.33
2017-10-26T14:43:10.079Z,4.18
2017-10-26T14:45:38.433Z,4.27
2017-10-26T14:48:06.011Z,4.00
2017-10-26T14:50:34.496Z,4.73
2017-10-26T14:53:02.860Z,5.03
2017-10-26T14:55:30.429Z,5.13
2017-10-26T14:57:59.707Z,5.10
2017-10-26T15:00:27.380Z,5.80
2017-10-26T15:02:55.005Z,5.45
2017-10-26T15:05:22.581Z,5.20
2017-10-26T15:07:50.154Z,6.87
2017-10-26T15:10:17.764Z,6.43
2017-10-26T15:12:45.344Z,6.83
2017-10-26T15:15:13.217Z,6.50
2017-10-26T15:17:40.813Z,6.50
2017-10-26T15:20:08.383Z,6.47
2017-10-26T15:22:37.475Z,7.20
2017-10-26T15:25:05.045Z,7.57
2017-10-26T15:27:33.480Z,7.37
2017-10-26T15:30:01.185Z,7.37
2017-10-26T15:32:29.892Z,7.30
2017-10-26T15:34:59.748Z,6.82
2017-10-26T15:37:27.317Z,7.77
2017-10-26T15:39:54.905Z,8.20
2017-10-26T15:42:22.480Z,7.67
2017-10-26T15:44:50.939Z,8.20
2017-10-26T15:47:18.500Z,8.80
2017-10-26T15:49:46.284Z,9.40
2017-10-26T15:52:14.621Z,9.00
2017-10-26T15:54:42.200Z,9.00
2017-10-26T15:57:09.792Z,8.57
2017-10-26T15:59:38.147Z,8.90
2017-10-26T16:02:06.505Z,8.90
2017-10-26T16:04:34.128Z,10.20
2017-10-26T16:07:01.693Z,9.93
2017-10-26T16:09:29.317Z,9.90
2017-10-26T16:11:58.060Z,8.60
2017-10-26T16:14:25.638Z,8.87
2017-10-26T16:16:53.424Z,10.70
2017-10-26T16:19:22.526Z,8.60
2017-10-26T16:21:50.186Z,9.07
2017-10-26T16:24:19.299Z,9.00
2017-10-26T16:26:47.633Z,8.43
2017-10-26T16:29:15.205Z,8.63
2017-10-26T16:31:42.812Z,8.60
2017-10-26T16:34:10.383Z,9.43
2017-10-26T16:36:37.975Z,9.87
2017-10-26T16:39:05.544Z,9.20
2017-10-26T16:41:33.140Z,9.60
2017-10-26T16:44:01.885Z,10.93
2017-10-26T16:46:31.013Z,10.43
2017-10-26T16:49:00.511Z,11.20
2017-10-26T16:51:28.892Z,10.20
2017-10-26T16:53:57.884Z,9.50
2017-10-26T16:56:26.269Z,10.83
2017-10-26T16:58:54.599Z,9.67
2017-10-26T17:01:22.169Z,9.80
2017-10-26T17:03:49.764Z,10.23
2017-10-26T17:06:17.328Z,10.67
2017-10-26T17:08:45.688Z,10.00
2017-10-26T17:11:13.265Z,10.63
2017-10-26T17:13:40.864Z,9.97
2017-10-26T17:16:08.488Z,10.15
2017-10-26T17:18:36.181Z,11.87
2017-10-26T17:21:04.541Z,10.55
2017-10-26T17:23:32.884Z,11.43
2017-10-26T17:26:00.572Z,10.83
2017-10-26T17:28:28.153Z,10.77
2017-10-26T17:30:57.436Z,9.93
2017-10-26T17:33:25.021Z,10.43
2017-10-26T17:35:53.380Z,9.73
2017-10-26T17:38:21.045Z,9.60
2017-10-26T17:40:48.640Z,9.30
2017-10-26T17:43:16.236Z,10.40
2017-10-26T17:45:43.957Z,9.93
2017-10-26T17:48:11.593Z,11.12
2017-10-26T17:50:39.969Z,11.30
2017-10-26T17:53:07.564Z,9.70
2017-10-26T17:55:35.132Z,11.33
2017-10-26T17:58:02.728Z,12.13
2017-10-26T18:00:30.308Z,11.90
2017-10-26T18:02:58.696Z,12.23
2017-10-26T18:05:26.318Z,12.10
2017-10-26T18:07:53.984Z,11.67
2017-10-26T18:10:21.653Z,13.57
2017-10-26T18:12:49.255Z,14.00
2017-10-26T18:15:17.597Z,13.70
2017-10-26T18:17:45.382Z,13.73
2017-10-26T18:20:12.947Z,14.25
2017-10-26T18:22:40.515Z,14.40
2017-10-26T18:25:08.230Z,14.80
2017-10-26T18:27:35.838Z,13.60
2017-10-26T18:30:03.556Z,14.85
2017-10-26T18:32:31.188Z,15.27
2017-10-26T18:35:00.684Z,14.87
2017-10-26T18:37:29.020Z,13.83
2017-10-26T18:39:58.829Z,14.68
2017-10-26T18:42:26.420Z,16.50
2017-10-26T18:44:53.997Z,14.90
2017-10-26T18:47:22.356Z,15.87
2017-10-26T18:49:49.930Z,15.05
2017-10-26T18:52:18.300Z,15.50
2017-10-26T18:54:47.393Z,15.70
2017-10-26T18:57:16.496Z,14.40
2017-10-26T18:59:44.068Z,14.10
2017-10-26T19:02:12.453Z,15.13
2017-10-26T19:04:40.037Z,14.60
2017-10-26T19:07:07.939Z,14.55
2017-10-26T19:12:09.324Z,15.57
2017-10-26T19:14:36.983Z,15.27
2017-10-26T19:17:04.553Z,15.13
2017-10-26T19:19:32.917Z,15.47
2017-10-26T19:22:00.488Z,17.57
2017-10-26T19:24:28.316Z,16.40
2017-10-26T19:26:56.809Z,16.87
2017-10-26T19:29:24.604Z,17.30
2017-10-26T19:31:52.172Z,17.00
2017-10-26T19:34:19.740Z,15.77
2017-10-26T19:36:48.101Z,16.40
2017-10-26T19:39:15.674Z,14.80
2017-10-26T19:41:44.036Z,15.70
2017-10-26T19:44:11.609Z,16.03
2017-10-26T19:46:39.232Z,17.13
2017-10-26T19:49:06.805Z,16.53
2017-10-26T19:51:34.376Z,17.77
2017-10-26T19:54:01.967Z,17.83
2017-10-26T19:56:30.308Z,17.90
2017-10-26T19:58:59.632Z,17.57
2017-10-26T20:01:27.203Z,17.43
2017-10-26T20:03:55.724Z,17.67
2017-10-26T20:06:23.295Z,17.93
2017-10-26T20:08:50.896Z,17.90
2017-10-26T20:11:18.500Z,19.67
2017-10-26T20:13:46.070Z,17.93
2017-10-26T20:16:13.672Z,16.75
2017-10-26T20:18:41.245Z,18.23
2017-10-26T20:21:09.749Z,17.73
2017-10-26T20:23:38.084Z,16.57
2017-10-26T20:26:06.433Z,17.95
2017-10-26T20:28:34.024Z,17.43
2017-10-26T20:31:01.593Z,19.07
2017-10-26T20:33:29.188Z,18.53
2017-10-26T20:35:57.817Z,18.83
2017-10-26T20:38:25.413Z,16.77
2017-10-26T20:40:53.757Z,19.90
2017-10-26T20:43:21.356Z,19.87
2017-10-26T20:45:49.694Z,18.87
2017-10-26T20:48:17.288Z,18.60
2017-10-26T20:50:50.515Z,18.67
2017-10-26T20:53:23.892Z,17.27
2017-10-26T20:55:57.825Z,19.03
2017-10-26T20:58:31.392Z,20.50
2017-10-26T21:01:06.156Z,19.90
2017-10-26T21:03:39.348Z,19.20
2017-10-26T21:06:21.792Z,19.67
2017-10-26T21:08:55.216Z,20.40
2017-10-26T21:11:28.477Z,19.85
2017-10-26T21:14:02.781Z,18.77
2017-10-26T21:16:30.362Z,16.97
2017-10-26T21:19:00.487Z,19.40
2017-10-26T21:21:28.080Z,20.13
2017-10-26T21:23:57.339Z,20.90
2017-10-26T21:26:24.935Z,19.40
2017-10-26T21:28:52.603Z,21.10
2017-10-26T21:31:21.068Z,19.53
2017-10-26T21:33:52.473Z,21.47
2017-10-26T21:36:20.284Z,21.90
2017-10-26T21:38:47.860Z,19.50
2017-10-26T21:41:15.429Z,22.43
2017-10-26T21:43:43.788Z,20.40
2017-10-26T21:46:11.361Z,22.13
2017-10-26T21:48:38.948Z,19.50
2017-10-26T21:51:06.523Z,19.87
2017-10-26T21:53:34.341Z,21.63
2017-10-26T21:56:01.911Z,22.23
2017-10-26T21:58:29.480Z,22.00
2017-10-26T22:00:59.685Z,21.65
2017-10-26T22:03:27.289Z,21.60
2017-10-26T22:05:54.909Z,23.73
2017-10-26T22:08:22.568Z,23.00
2017-10-26T22:10:50.143Z,22.60
2017-10-26T22:13:18.816Z,21.70
2017-10-26T22:15:46.383Z,23.43
2017-10-26T22:18:14.728Z,21.47
2017-10-26T22:20:42.426Z,23.87
2017-10-26T22:23:09.996Z,23.93
2017-10-26T22:25:38.331Z,25.00
2017-10-26T22:28:05.924Z,24.02
2017-10-26T22:30:33.496Z,24.33
2017-10-26T22:33:01.848Z,23.90
2017-10-26T22:35:29.437Z,24.10
2017-10-26T22:37:59.620Z,21.98
2017-10-26T22:40:27.304Z,24.60
2017-10-26T22:42:54.881Z,22.65
2017-10-26T22:45:23.340Z,23.07
2017-10-26T22:47:50.904Z,22.87
2017-10-26T22:50:18.475Z,21.80
2017-10-26T22:52:46.084Z,20.60
2017-10-26T22:55:13.656Z,22.70
2017-10-26T22:57:41.351Z,23.00
2017-10-26T23:00:08.920Z,25.40
2017-10-26T23:02:37.498Z,22.57
2017-10-26T23:05:06.575Z,22.73
2017-10-26T23:07:34.149Z,23.20
2017-10-26T23:10:01.749Z,23.97
2017-10-26T23:12:29.312Z,24.00
2017-10-26T23:14:58.205Z,21.80
2017-10-26T23:17:25.781Z,22.50
2017-10-26T23:19:53.373Z,22.67
2017-10-26T23:22:20.939Z,22.97
2017-10-26T23:24:48.717Z,20.43
2017-10-26T23:27:16.300Z,24.20
2017-10-26T23:29:44.638Z,20.47
2017-10-26T23:32:12.248Z,21.92
2017-10-26T23:34:39.816Z,22.33
2017-10-26T23:37:07.424Z,20.50
2017-10-26T23:39:34.993Z,20.75
2017-10-26T23:42:02.593Z,21.87
2017-10-26T23:44:30.168Z,20.57
2017-10-26T23:46:59.629Z,20.00
2017-10-26T23:49:27.194Z,22.60
2017-10-26T23:51:54.780Z,21.60
2017-10-26T23:54:22.411Z,20.60
2017-10-26T23:56:49.999Z,21.10
2017-10-26T23:59:17.576Z,20.50
